Time;durP1;ratioP1;P1;durP2;ratioP2;P2;SDS_P1;SDS_P2;PMS_P1;PMS_P2;Temp;Humidity;BMP_temperature;BMP_pressure;BME280_temperature;BME280_humidity;BME280_pressure;Samples;Min_cycle;Max_cycle;Signal;HPM_P1;HPM_P2
2019/09/07 04:02:27;;;;;;;13.4;12;;;;;;;13.03;99.29883;963.1261;;;;
2019/09/07 04:04:52;;;;;;;15.7;14.1;;;;;;;13.08;100;963.1458;;;;
2019/09/07 04:07:17;;;;;;;15.1;13.6;;;;;;;12.86;100;963.1131;;;;
2019/09/07 04:09:42;;;;;;;16;14.5;;;;;;;12.78;100;963.092;;;;
2019/09/07 04:12:08;;;;;;;16.9;15.2;;;;;;;12.74;100;963.0875;;;;
2019/09/07 04:14:33;;;;;;;19.4;17.6;;;;;;;12.76;100;963.1031;;;;
2019/09/07 04:16:58;;;;;;;17.1;15.4;;;;;;;12.61;100;963.0875;;;;
2019/09/07 04:19:23;;;;;;;17.3;15.6;;;;;;;12.76;100;963.0876;;;;
2019/09/07 04:21:48;;;;;;;17.6;15.9;;;;;;;12.78;100;963.111;;;;
2019/09/07 04:24:13;;;;;;;17.2;15.4;;;;;;;12.72;100;963.1345;;;;
2019/09/07 04:26:38;;;;;;;17.2;15.4;;;;;;;12.66;100;963.1072;;;;
2019/09/07 04:29:03;;;;;;;16.7;15.1;;;;;;;12.67;100;963.1213;;;;
2019/09/07 04:31:28;;;;;;;17.7;15.8;;;;;;;12.66;100;963.0836;;;;
2019/09/07 04:33:53;;;;;;;17;15.4;;;;;;;12.7;100;963.1005;;;;
2019/09/07 04:36:18;;;;;;;16.3;14.7;;;;;;;12.58;100;963.1295;;;;
2019/09/07 04:38:43;;;;;;;17;15.3;;;;;;;12.63;100;963.1518;;;;
2019/09/07 04:41:09;;;;;;;17.4;15.4;;;;;;;12.68;100;963.0955;;;;
2019/09/07 04:43:34;;;;;;;16.5;14.9;;;;;;;12.67;100;963.1238;;;;
2019/09/07 04:45:59;;;;;;;16.5;14.7;;;;;;;12.65;100;963.1004;;;;
2019/09/07 04:48:24;;;;;;;16.4;14.2;;;;;;;12.66;100;963.1097;;;;
2019/09/07 04:50:49;;;;;;;15.7;14.1;;;;;;;12.75;100;963.1202;;;;
2019/09/07 04:53:14;;;;;;;17.7;15.8;;;;;;;12.72;100;963.0911;;;;
2019/09/07 04:55:39;;;;;;;17.6;15.4;;;;;;;12.66;100;963.1359;;;;
2019/09/07 04:58:04;;;;;;;16.3;14.6;;;;;;;12.71;100;963.1227;;;;
2019/09/07 05:00:30;;;;;;;16.7;14.9;;;;;;;12.73;100;963.1091;;;;
2019/09/07 05:02:55;;;;;;;17.7;15.8;;;;;;;12.63;100;963.1813;;;;
2019/09/07 05:05:20;;;;;;;17.9;16.1;;;;;;;12.64;100;963.205;;;;
2019/09/07 05:07:46;;;;;;;16.7;15.1;;;;;;;12.56;100;963.2011;;;;
2019/09/07 05:10:11;;;;;;;17.6;15.7;;;;;;;12.49;100;963.2367;;;;
2019/09/07 05:12:36;;;;;;;17.1;15.4;;;;;;;12.61;100;963.2543;;;;
2019/09/07 05:15:01;;;;;;;17;15.3;;;;;;;12.63;100;963.2081;;;;
2019/09/07 05:17:26;;;;;;;17.6;15.9;;;;;;;12.55;100;963.1944;;;;
2019/09/07 05:19:51;;;;;;;18.8;16.9;;;;;;;12.58;100;963.2023;;;;
2019/09/07 05:22:16;;;;;;;19.9;17.9;;;;;;;12.58;100;963.2579;;;;
2019/09/07 05:24:41;;;;;;;18.8;16.9;;;;;;;12.41;100;963.2903;;;;
2019/09/07 05:27:06;;;;;;;18.6;16.7;;;;;;;12.46;100;963.2509;;;;
2019/09/07 05:29:32;;;;;;;21.2;19;;;;;;;12.41;100;963.2728;;;;
2019/09/07 05:31:57;;;;;;;20.4;18.3;;;;;;;12.48;100;963.3111;;;;
2019/09/07 05:34:22;;;;;;;22.1;19.4;;;;;;;12.5;100;963.2875;;;;
2019/09/07 05:36:47;;;;;;;21.2;19;;;;;;;12.5;100;963.2992;;;;
2019/09/07 05:39:12;;;;;;;19.4;17.5;;;;;;;12.59;100;963.233;;;;
2019/09/07 05:41:37;;;;;;;19;17.1;;;;;;;12.64;100;963.2556;;;;
2019/09/07 05:44:02;;;;;;;21;18.5;;;;;;;12.54;100;963.25;;;;
2019/09/07 05:46:27;;;;;;;20.6;18.4;;;;;;;12.58;100;963.2473;;;;
2019/09/07 05:48:52;;;;;;;21.6;19.3;;;;;;;12.63;100;963.2924;;;;
2019/09/07 05:51:17;;;;;;;21;18.4;;;;;;;12.51;100;963.2535;;;;
2019/09/07 05:53:42;;;;;;;21.6;19.3;;;;;;;12.4;100;963.2352;;;;
2019/09/07 05:56:07;;;;;;;22.3;19.9;;;;;;;12.45;100;963.2868;;;;
2019/09/07 05:58:33;;;;;;;20;17.9;;;;;;;12.48;100;963.2391;;;;
2019/09/07 06:00:58;;;;;;;20.8;18.6;;;;;;;12.54;100;963.2761;;;;
2019/09/07 06:03:23;;;;;;;19.3;17.4;;;;;;;12.55;100;963.2885;;;;
2019/09/07 06:05:48;;;;;;;20.7;18.5;;;;;;;12.55;100;963.2941;;;;
2019/09/07 06:08:13;;;;;;;22.4;20;;;;;;;12.5;100;963.2826;;;;
2019/09/07 06:10:38;;;;;;;21.2;19;;;;;;;12.53;100;963.2692;;;;
2019/09/07 06:13:03;;;;;;;21.9;19.6;;;;;;;12.59;100;963.2874;;;;
2019/09/07 06:15:28;;;;;;;19.3;17.3;;;;;;;12.56;100;963.2267;;;;
2019/09/07 06:17:53;;;;;;;21.8;18.7;;;;;;;12.61;100;963.278;;;;
2019/09/07 06:20:18;;;;;;;23.6;20.8;;;;;;;12.75;100;963.3124;;;;
2019/09/07 06:22:44;;;;;;;20.1;17.8;;;;;;;12.5;100;963.334;;;;
2019/09/07 06:25:11;;;;;;;22.7;19.4;;;;;;;12.61;100;963.3549;;;;
2019/09/07 06:27:36;;;;;;;21.4;19.2;;;;;;;12.66;100;963.3649;;;;
2019/09/07 06:30:01;;;;;;;23.5;21;;;;;;;12.73;100;963.3259;;;;
2019/09/07 06:32:26;;;;;;;20.2;18.2;;;;;;;12.66;100;963.3494;;;;
2019/09/07 06:34:51;;;;;;;20.6;18.5;;;;;;;12.79;100;963.3342;;;;
2019/09/07 06:37:16;;;;;;;22.3;19.6;;;;;;;12.71;100;963.3;;;;
2019/09/07 06:39:41;;;;;;;20.5;18.5;;;;;;;12.82;100;963.2881;;;;
2019/09/07 06:42:06;;;;;;;20.6;18.5;;;;;;;12.91;100;963.2536;;;;
2019/09/07 06:44:31;;;;;;;20.3;18.3;;;;;;;12.91;100;963.3287;;;;
2019/09/07 06:46:56;;;;;;;20.7;18.5;;;;;;;12.93;100;963.3055;;;;
2019/09/07 06:49:22;;;;;;;20.3;18.2;;;;;;;12.98;100;963.2766;;;;
2019/09/07 06:51:47;;;;;;;18.5;16.6;;;;;;;12.99;100;963.3162;;;;
2019/09/07 06:54:12;;;;;;;20.2;17.9;;;;;;;13.06;100;963.3246;;;;
2019/09/07 06:56:37;;;;;;;22.2;19.9;;;;;;;13.02;100;963.325;;;;
2019/09/07 06:59:02;;;;;;;21.1;18.9;;;;;;;13.06;100;963.3353;;;;
2019/09/07 07:01:27;;;;;;;20.5;18.3;;;;;;;13.08;100;963.3652;;;;
2019/09/07 07:05:56;;;;;;;20.3;18.2;;;;;;;12.96;100;963.418;;;;
2019/09/07 07:08:21;;;;;;;22;19.6;;;;;;;12.97;100;963.427;;;;
2019/09/07 07:10:46;;;;;;;24.5;19.9;;;;;;;13.08;100;963.5059;;;;
2019/09/07 07:13:11;;;;;;;21.5;19.2;;;;;;;13.14;100;963.5215;;;;
2019/09/07 07:15:36;;;;;;;24.6;20.8;;;;;;;13.07;100;963.4842;;;;
2019/09/07 07:18:02;;;;;;;22.4;20;;;;;;;13.14;100;963.4872;;;;
2019/09/07 07:20:27;;;;;;;21.5;19.3;;;;;;;13.11;100;963.548;;;;
2019/09/07 07:22:52;;;;;;;23.8;20.1;;;;;;;13.1;100;963.519;;;;
2019/09/07 07:25:17;;;;;;;22.1;19.7;;;;;;;13.17;100;963.5719;;;;
2019/09/07 07:27:42;;;;;;;21.6;18.8;;;;;;;13.07;100;963.5432;;;;
2019/09/07 07:30:07;;;;;;;22.7;20.5;;;;;;;13.28;100;963.5876;;;;
2019/09/07 07:32:32;;;;;;;23.6;21;;;;;;;13.35;100;963.6085;;;;
2019/09/07 07:34:57;;;;;;;20.3;18.2;;;;;;;13.35;100;963.5758;;;;
2019/09/07 07:37:23;;;;;;;18.8;16.9;;;;;;;13.16;99.4209;963.5536;;;;
2019/09/07 07:39:48;;;;;;;20.7;18.4;;;;;;;13.24;100;963.5614;;;;
2019/09/07 07:42:13;;;;;;;22.4;20;;;;;;;13.36;100;963.5652;;;;
2019/09/07 07:44:38;;;;;;;18.8;16.9;;;;;;;13.43;100;963.5811;;;;
2019/09/07 07:47:03;;;;;;;19.4;17.3;;;;;;;13.43;100;963.6213;;;;
2019/09/07 07:49:28;;;;;;;18.5;16.3;;;;;;;13.35;98.82617;963.6232;;;;
2019/09/07 07:51:53;;;;;;;19;17.1;;;;;;;13.47;100;963.6848;;;;
2019/09/07 07:54:18;;;;;;;20.3;17.4;;;;;;;13.57;100;963.6688;;;;
2019/09/07 07:56:43;;;;;;;18.7;16.3;;;;;;;13.55;100;963.6663;;;;
2019/09/07 07:59:08;;;;;;;18.9;16.3;;;;;;;13.51;99.85938;963.7294;;;;
2019/09/07 08:01:33;;;;;;;17.6;15.7;;;;;;;13.43;97.90625;963.7134;;;;
2019/09/07 08:03:59;;;;;;;17.3;15.6;;;;;;;13.64;100;963.7319;;;;
2019/09/07 08:06:24;;;;;;;17.3;15.4;;;;;;;13.6;100;963.6808;;;;
2019/09/07 08:08:49;;;;;;;17.5;15.8;;;;;;;13.62;99.49023;963.6761;;;;
2019/09/07 08:11:14;;;;;;;18.3;15.9;;;;;;;13.64;100;963.6733;;;;
2019/09/07 08:13:39;;;;;;;19.7;16;;;;;;;13.71;100;963.6676;;;;
2019/09/07 08:16:04;;;;;;;17.8;15.9;;;;;;;13.61;98.36426;963.6791;;;;
2019/09/07 08:18:29;;;;;;;20.6;16.7;;;;;;;13.47;98.59961;963.6528;;;;
2019/09/07 08:20:54;;;;;;;19.5;16.7;;;;;;;13.54;100;963.666;;;;
2019/09/07 08:23:19;;;;;;;18;15.5;;;;;;;13.56;98.8291;963.6213;;;;
2019/09/07 08:25:44;;;;;;;16.3;14.6;;;;;;;13.55;98.43066;963.6987;;;;
2019/09/07 08:28:10;;;;;;;18.5;16;;;;;;;13.64;100;963.697;;;;
2019/09/07 08:30:35;;;;;;;17.6;15.8;;;;;;;13.59;99.46289;963.6824;;;;
2019/09/07 08:33:00;;;;;;;18.2;15.4;;;;;;;13.74;99.02051;963.7015;;;;
2019/09/07 08:35:25;;;;;;;16.9;15.1;;;;;;;13.95;99.97168;963.7888;;;;
2019/09/07 08:37:50;;;;;;;16.2;14.5;;;;;;;14;98.90527;963.7714;;;;
2019/09/07 08:40:15;;;;;;;17.9;15.7;;;;;;;13.95;97.39648;963.7436;;;;
2019/09/07 08:42:40;;;;;;;16.8;13.3;;;;;;;13.93;96.29102;963.7736;;;;
2019/09/07 08:45:05;;;;;;;13.4;12;;;;;;;13.9;97.72363;963.7339;;;;
2019/09/07 08:47:31;;;;;;;14.3;12.8;;;;;;;13.77;94.55078;963.7463;;;;
2019/09/07 08:49:56;;;;;;;14.5;13;;;;;;;13.85;98.10547;963.7626;;;;
2019/09/07 08:52:21;;;;;;;14.5;12.3;;;;;;;13.9;97.95313;963.7667;;;;
2019/09/07 08:54:46;;;;;;;12.5;10.4;;;;;;;13.98;96.4541;963.7572;;;;
2019/09/07 08:57:11;;;;;;;10.1;8.5;;;;;;;14;93.53418;963.7784;;;;
2019/09/07 08:59:36;;;;;;;11.9;9;;;;;;;14.01;92.11914;963.8067;;;;
2019/09/07 09:02:01;;;;;;;11.2;9.3;;;;;;;14;95.2168;963.7817;;;;
2019/09/07 09:04:26;;;;;;;11.8;9.3;;;;;;;14.07;96.7959;963.7787;;;;
2019/09/07 09:06:51;;;;;;;11.4;8.7;;;;;;;14.21;95.30957;963.8019;;;;
2019/09/07 09:09:17;;;;;;;11.1;7.5;;;;;;;14.2;86.20898;963.7769;;;;
2019/09/07 09:11:42;;;;;;;11.4;9;;;;;;;14;91.6084;963.7583;;;;
2019/09/07 09:14:07;;;;;;;10.4;9.3;;;;;;;14.14;91.80078;963.7311;;;;
2019/09/07 09:16:32;;;;;;;12.3;9.8;;;;;;;14.31;95.19238;963.7372;;;;
2019/09/07 09:18:57;;;;;;;10.2;8.5;;;;;;;14.37;91.44238;963.6937;;;;
2019/09/07 09:21:22;;;;;;;11.5;8.4;;;;;;;14.35;93.56055;963.6605;;;;
2019/09/07 09:23:47;;;;;;;10.4;7.8;;;;;;;14.47;86.13281;963.6462;;;;
2019/09/07 09:26:12;;;;;;;10;7.2;;;;;;;14.34;84.88867;963.608;;;;
2019/09/07 09:28:37;;;;;;;10.9;7.7;;;;;;;14.29;88.75488;963.6583;;;;
2019/09/07 09:31:03;;;;;;;11.3;7.1;;;;;;;14.39;89.28809;963.5575;;;;
2019/09/07 09:33:28;;;;;;;10.4;6.6;;;;;;;14.35;83.63477;963.5342;;;;
2019/09/07 09:35:53;;;;;;;9.3;6.7;;;;;;;14.43;87.49512;963.5123;;;;
2019/09/07 09:38:18;;;;;;;11.2;6.9;;;;;;;14.48;87.72559;963.5226;;;;
2019/09/07 09:40:43;;;;;;;8.4;6.2;;;;;;;14.53;88.38672;963.5266;;;;
2019/09/07 09:43:08;;;;;;;9.2;6.2;;;;;;;14.62;84.35059;963.4644;;;;
2019/09/07 09:45:34;;;;;;;10.1;7;;;;;;;14.72;86.60156;963.4384;;;;
2019/09/07 09:48:00;;;;;;;9;6.5;;;;;;;14.69;85.39844;963.4185;;;;
2019/09/07 09:50:25;;;;;;;8.8;7;;;;;;;14.65;90.47754;963.4055;;;;
2019/09/07 09:52:50;;;;;;;11.2;6.3;;;;;;;14.67;80.07324;963.4001;;;;
2019/09/07 09:55:15;;;;;;;6.9;4.4;;;;;;;14.63;79.01953;963.3326;;;;
2019/09/07 09:57:40;;;;;;;8.5;4.8;;;;;;;14.58;75.16504;963.3279;;;;
2019/09/07 10:00:05;;;;;;;8.7;4.5;;;;;;;14.63;81.35449;963.3621;;;;
2019/09/07 10:02:30;;;;;;;8;4.3;;;;;;;14.68;75.78809;963.3714;;;;
2019/09/07 10:04:55;;;;;;;7.1;4;;;;;;;14.72;76.80469;963.3638;;;;
2019/09/07 10:07:20;;;;;;;8.2;5;;;;;;;14.72;81.41992;963.3924;;;;
2019/09/07 10:09:45;;;;;;;9.2;5.5;;;;;;;14.62;81.00488;963.3791;;;;
2019/09/07 10:12:10;;;;;;;8.5;5.8;;;;;;;14.64;86.63281;963.3448;;;;
2019/09/07 10:14:35;;;;;;;10.9;5.9;;;;;;;14.7;83.84473;963.2872;;;;
2019/09/07 10:17:01;;;;;;;9.3;4.9;;;;;;;14.8;77.62207;963.2756;;;;
2019/09/07 10:19:26;;;;;;;8.5;5.8;;;;;;;14.96;80.70703;963.2772;;;;
2019/09/07 10:21:51;;;;;;;9.5;6.2;;;;;;;15;80.97168;963.2748;;;;
2019/09/07 10:24:16;;;;;;;9.3;5.8;;;;;;;14.97;82.4873;963.2706;;;;
2019/09/07 10:26:41;;;;;;;10.2;5.5;;;;;;;14.99;78.5625;963.2396;;;;
2019/09/07 10:29:06;;;;;;;8.3;5.7;;;;;;;14.99;79.85352;963.2183;;;;
2019/09/07 10:31:31;;;;;;;9.8;5.5;;;;;;;15.14;82.6377;963.2481;;;;
2019/09/07 10:33:57;;;;;;;7.9;4.4;;;;;;;15.16;76.58105;963.2349;;;;
2019/09/07 10:36:22;;;;;;;7.1;4.1;;;;;;;15.16;77.96582;963.2308;;;;
2019/09/07 10:38:47;;;;;;;6;3.7;;;;;;;15.23;75.45215;963.2389;;;;
2019/09/07 10:41:12;;;;;;;8.2;4.5;;;;;;;15.17;77.4082;963.2434;;;;
2019/09/07 10:43:37;;;;;;;8.3;4.2;;;;;;;15.29;80.4082;963.2679;;;;
2019/09/07 10:46:02;;;;;;;5.2;3.5;;;;;;;15.41;76.20508;963.2072;;;;
2019/09/07 10:48:27;;;;;;;6;3.4;;;;;;;15.44;75.92969;963.1697;;;;
2019/09/07 10:50:52;;;;;;;6.2;3.5;;;;;;;15.48;77.34766;963.1886;;;;
2019/09/07 10:55:45;;;;;;;5.2;3.4;;;;;;;15.68;76.22852;963.1861;;;;
2019/09/07 10:58:11;;;;;;;5.6;3.9;;;;;;;15.75;75.78809;963.2397;;;;
2019/09/07 11:00:36;;;;;;;6.6;3.8;;;;;;;15.77;77.28223;963.207;;;;
2019/09/07 11:03:01;;;;;;;7.1;4.1;;;;;;;15.86;79.125;963.1729;;;;
2019/09/07 11:05:26;;;;;;;7.5;4.5;;;;;;;15.8;77.4502;963.1529;;;;
2019/09/07 11:07:51;;;;;;;7.4;4.6;;;;;;;16;79.00098;963.119;;;;
2019/09/07 11:10:16;;;;;;;6.2;3.7;;;;;;;15.91;72.85645;963.1025;;;;
2019/09/07 11:12:41;;;;;;;5.8;3.4;;;;;;;15.91;70.44141;963.1244;;;;
2019/09/07 11:15:06;;;;;;;6.6;3.3;;;;;;;15.92;70.43457;963.095;;;;
2019/09/07 11:17:31;;;;;;;6.3;3.1;;;;;;;16.04;69.81055;963.1152;;;;
2019/09/07 11:19:56;;;;;;;5;3;;;;;;;16.17;70.22852;963.1262;;;;
2019/09/07 11:22:22;;;;;;;5.9;3.5;;;;;;;16.17;70.33496;963.0571;;;;
2019/09/07 11:24:47;;;;;;;5.8;3.3;;;;;;;16.35;70.29199;963.0016;;;;
2019/09/07 11:27:12;;;;;;;8.1;3.7;;;;;;;16.38;68.82715;962.9796;;;;
2019/09/07 11:29:37;;;;;;;6.1;3.7;;;;;;;16.29;70.65625;962.9373;;;;
2019/09/07 11:32:02;;;;;;;6;3.5;;;;;;;16.23;72.23242;962.8928;;;;
2019/09/07 11:34:27;;;;;;;6.7;3.6;;;;;;;16.26;71.3291;962.9011;;;;
2019/09/07 11:36:52;;;;;;;6.7;3.8;;;;;;;16.41;68.08594;962.8528;;;;
2019/09/07 11:39:17;;;;;;;5.9;3.3;;;;;;;16.4;70.09082;962.8784;;;;
2019/09/07 11:41:42;;;;;;;6.6;3.6;;;;;;;16.41;74.49023;962.9467;;;;
2019/09/07 11:44:07;;;;;;;6.2;3.3;;;;;;;16.34;69.00781;962.913;;;;
2019/09/07 11:46:32;;;;;;;6.5;3.6;;;;;;;16.41;68.86914;962.8586;;;;
2019/09/07 11:48:58;;;;;;;5.8;3.4;;;;;;;16.42;70.96973;962.9131;;;;
2019/09/07 11:51:23;;;;;;;6.7;4;;;;;;;16.34;74.19922;962.8858;;;;
2019/09/07 11:53:48;;;;;;;7.5;3.9;;;;;;;16.33;72.00391;962.8535;;;;
2019/09/07 11:56:13;;;;;;;6.6;3.6;;;;;;;16.42;69.74512;962.8638;;;;
2019/09/07 11:58:38;;;;;;;4.6;3.3;;;;;;;16.49;67.65527;962.9099;;;;
2019/09/07 12:01:03;;;;;;;6;3.4;;;;;;;16.46;68.20996;962.9041;;;;
2019/09/07 12:03:28;;;;;;;5.9;3.3;;;;;;;16.42;67.13184;962.918;;;;
2019/09/07 12:05:53;;;;;;;7.4;3.5;;;;;;;16.28;68.14648;962.8931;;;;
2019/09/07 12:08:18;;;;;;;7.3;3.7;;;;;;;16.46;69.82129;962.9139;;;;
2019/09/07 12:10:43;;;;;;;7;4.6;;;;;;;16.47;66.49707;962.8867;;;;
2019/09/07 12:13:08;;;;;;;5.7;3.4;;;;;;;16.51;67.44922;962.8811;;;;
2019/09/07 12:15:34;;;;;;;5.5;2.9;;;;;;;16.41;67.0127;962.8027;;;;
2019/09/07 12:17:59;;;;;;;4.8;2.7;;;;;;;16.45;68.80273;962.8569;;;;
2019/09/07 12:20:24;;;;;;;5.6;3.2;;;;;;;16.47;66.62402;962.829;;;;
2019/09/07 12:22:49;;;;;;;5.8;3.5;;;;;;;16.37;67.3457;962.8372;;;;
2019/09/07 12:25:14;;;;;;;6.8;3.5;;;;;;;16.16;69.18945;962.8064;;;;
2019/09/07 12:27:39;;;;;;;5;3.5;;;;;;;16.17;68.96777;962.78;;;;
2019/09/07 12:30:04;;;;;;;5.9;3.5;;;;;;;16.07;68.2666;962.7864;;;;
2019/09/07 12:32:29;;;;;;;5.3;3.4;;;;;;;16.15;68.58203;962.7223;;;;
2019/09/07 12:34:54;;;;;;;5.6;3.5;;;;;;;16.16;69.63281;962.7045;;;;
2019/09/07 12:37:19;;;;;;;6.1;3.3;;;;;;;16.23;69.48047;962.7192;;;;
2019/09/07 12:39:44;;;;;;;7;3.4;;;;;;;16.24;69.37695;962.7145;;;;
2019/09/07 12:42:10;;;;;;;6.5;3.4;;;;;;;16.24;69.61035;962.6937;;;;
2019/09/07 12:44:35;;;;;;;6;3.4;;;;;;;16.29;70.17871;962.6881;;;;
2019/09/07 12:47:00;;;;;;;6.8;3.5;;;;;;;16.25;71.13965;962.6783;;;;
2019/09/07 12:49:25;;;;;;;6.1;3.3;;;;;;;16.47;69.36621;962.7436;;;;
2019/09/07 12:51:50;;;;;;;6.5;3.4;;;;;;;16.32;69.4834;962.7326;;;;
2019/09/07 12:54:15;;;;;;;6.2;3.8;;;;;;;16.18;69.27539;962.678;;;;
2019/09/07 12:56:40;;;;;;;7.1;3.8;;;;;;;16.04;68.26172;962.6761;;;;
2019/09/07 12:59:05;;;;;;;5.6;3.7;;;;;;;16.04;67.77148;962.64;;;;
2019/09/07 13:01:30;;;;;;;6.4;3.6;;;;;;;16.07;70.64551;962.64;;;;
2019/09/07 13:03:55;;;;;;;6.1;3.5;;;;;;;16.11;68.80762;962.6039;;;;
2019/09/07 13:06:20;;;;;;;6.3;3.6;;;;;;;16.14;70.29395;962.6326;;;;
2019/09/07 13:08:45;;;;;;;6.1;3.6;;;;;;;16.2;69.62793;962.6172;;;;
2019/09/07 13:11:11;;;;;;;6.3;3.7;;;;;;;16.19;69.2998;962.6164;;;;
2019/09/07 13:13:36;;;;;;;7.2;3.5;;;;;;;16.3;69.66504;962.5499;;;;
2019/09/07 13:16:01;;;;;;;5.9;3.3;;;;;;;16.2;67.75098;962.567;;;;
2019/09/07 13:18:26;;;;;;;5.9;3;;;;;;;16.21;68.61523;962.5514;;;;
2019/09/07 13:20:51;;;;;;;5;3.1;;;;;;;16.21;69.47754;962.5483;;;;
2019/09/07 13:23:16;;;;;;;5.5;2.9;;;;;;;16.3;68.01074;962.5041;;;;
2019/09/07 13:25:41;;;;;;;6.3;3.4;;;;;;;16.17;68.76953;962.4856;;;;
2019/09/07 13:28:06;;;;;;;5.4;2.9;;;;;;;16.18;70.96582;962.5475;;;;
2019/09/07 13:30:31;;;;;;;5.5;3.1;;;;;;;16.24;69.97168;962.4305;;;;
2019/09/07 13:32:56;;;;;;;5.9;3.1;;;;;;;16.34;67.9248;962.3954;;;;
2019/09/07 13:35:21;;;;;;;5.1;3.2;;;;;;;16.35;68.19238;962.4217;;;;
2019/09/07 13:37:46;;;;;;;5.5;3.2;;;;;;;16.2;67.34277;962.4009;;;;
2019/09/07 13:40:11;;;;;;;6.6;3.4;;;;;;;16.41;68.80957;962.3921;;;;
2019/09/07 13:42:37;;;;;;;5.6;3.4;;;;;;;16.57;68.41406;962.3287;;;;
2019/09/07 13:45:02;;;;;;;5.5;3.3;;;;;;;16.65;67.00293;962.305;;;;
2019/09/07 13:47:27;;;;;;;6.7;3.3;;;;;;;16.67;68.33594;962.2936;;;;
2019/09/07 13:49:53;;;;;;;6;2.6;;;;;;;16.79;69.08984;962.2617;;;;
2019/09/07 13:52:18;;;;;;;5.7;3.5;;;;;;;16.73;66.43164;962.2927;;;;
2019/09/07 13:54:43;;;;;;;4.7;2.5;;;;;;;16.85;66.44824;962.2889;;;;
2019/09/07 13:57:08;;;;;;;4.7;2.4;;;;;;;16.77;64.18359;962.2615;;;;
2019/09/07 13:59:34;;;;;;;6.6;2.6;;;;;;;16.54;63.6377;962.1883;;;;
2019/09/07 14:01:59;;;;;;;5;2.4;;;;;;;16.6;66.29492;962.2128;;;;
2019/09/07 14:04:24;;;;;;;4.9;2.2;;;;;;;16.67;64.96289;962.231;;;;
2019/09/07 14:06:49;;;;;;;4.4;1.9;;;;;;;16.62;66.25195;962.2433;;;;
2019/09/07 14:09:14;;;;;;;5.2;2.3;;;;;;;16.6;66.83105;962.2498;;;;
2019/09/07 14:11:40;;;;;;;5.5;2.4;;;;;;;16.43;65.7207;962.2688;;;;
2019/09/07 14:14:05;;;;;;;6.3;2.5;;;;;;;16.39;67.15039;962.2876;;;;
2019/09/07 14:16:30;;;;;;;5.8;2.4;;;;;;;16.23;64.39648;962.3837;;;;
2019/09/07 14:18:55;;;;;;;5.9;2.3;;;;;;;16.2;66.24707;962.4486;;;;
2019/09/07 14:21:20;;;;;;;4.7;2.6;;;;;;;15.83;71.93262;962.4643;;;;
2019/09/07 14:23:45;;;;;;;5.3;3.1;;;;;;;15.49;77.46582;962.515;;;;
2019/09/07 14:26:10;;;;;;;6.4;3.5;;;;;;;15.07;79.76172;962.6465;;;;
2019/09/07 14:28:35;;;;;;;8.4;3;;;;;;;14.5;81.8418;962.6672;;;;
2019/09/07 14:31:01;;;;;;;7.1;3.4;;;;;;;14.11;84.73926;962.6513;;;;
2019/09/07 14:33:26;;;;;;;11.9;4.3;;;;;;;13.84;90.9502;962.6967;;;;
2019/09/07 14:35:51;;;;;;;7.9;4.1;;;;;;;13.23;93.93652;962.7289;;;;
2019/09/07 14:38:16;;;;;;;11.1;5;;;;;;;13.08;96.3457;962.6925;;;;
2019/09/07 14:40:41;;;;;;;11.7;6.7;;;;;;;13.1;99.98535;962.6754;;;;
2019/09/07 14:43:06;;;;;;;8.5;4.1;;;;;;;12.98;95.16699;962.7701;;;;
2019/09/07 14:45:31;;;;;;;7.3;4.6;;;;;;;12.97;95.35938;962.7922;;;;
2019/09/07 14:47:56;;;;;;;8.3;4.5;;;;;;;12.7;95.36035;962.8215;;;;
2019/09/07 14:50:21;;;;;;;8.7;4.1;;;;;;;12.58;97.13867;962.8401;;;;
2019/09/07 14:52:46;;;;;;;7;3.9;;;;;;;12.54;98.16895;962.8281;;;;
2019/09/07 14:55:11;;;;;;;6.9;3.4;;;;;;;12.49;96.98926;962.8664;;;;
2019/09/07 14:57:36;;;;;;;6.5;3;;;;;;;12.31;98.56934;962.9075;;;;
2019/09/07 15:00:02;;;;;;;5.7;3.2;;;;;;;12.33;99.71777;962.9406;;;;
2019/09/07 15:02:27;;;;;;;4.1;3;;;;;;;12.28;97.5791;962.9258;;;;
2019/09/07 15:04:52;;;;;;;4.5;2.7;;;;;;;12.25;98.62402;962.9464;;;;
2019/09/07 15:07:17;;;;;;;4.8;2.9;;;;;;;12.24;99.70605;962.957;;;;
2019/09/07 15:09:42;;;;;;;4.7;3;;;;;;;12.19;96.42676;962.9633;;;;
2019/09/07 15:12:07;;;;;;;5.4;3.6;;;;;;;12.21;100;962.9719;;;;
2019/09/07 15:14:32;;;;;;;5.6;3.6;;;;;;;12.28;97.91406;962.938;;;;
2019/09/07 15:16:57;;;;;;;6.8;3.6;;;;;;;12.22;99.21875;962.9451;;;;
2019/09/07 15:19:22;;;;;;;6.5;4.5;;;;;;;12.34;100;962.8851;;;;
2019/09/07 15:21:47;;;;;;;10;4.3;;;;;;;12.25;97.4209;962.8948;;;;
2019/09/07 15:24:13;;;;;;;5.6;3.9;;;;;;;12.27;99.29883;962.933;;;;
2019/09/07 15:26:38;;;;;;;6.8;4.8;;;;;;;12.41;100;962.9189;;;;
2019/09/07 15:29:03;;;;;;;7;4.5;;;;;;;12.41;100;962.9356;;;;
2019/09/07 15:31:28;;;;;;;7.4;5.6;;;;;;;12.52;100;962.9863;;;;
2019/09/07 15:33:53;;;;;;;8.6;6.8;;;;;;;12.68;100;962.968;;;;
2019/09/07 15:36:18;;;;;;;9.2;6.5;;;;;;;12.7;100;962.9738;;;;
2019/09/07 15:38:43;;;;;;;8.5;5.6;;;;;;;12.64;100;962.9294;;;;
2019/09/07 15:41:08;;;;;;;7.8;5.3;;;;;;;12.66;100;962.9306;;;;
2019/09/07 15:43:33;;;;;;;7.7;4.9;;;;;;;12.53;98.57031;962.8425;;;;
2019/09/07 15:45:58;;;;;;;7.1;4.8;;;;;;;12.53;98.95508;962.8666;;;;
2019/09/07 15:48:23;;;;;;;8.6;5.4;;;;;;;12.61;100;962.8962;;;;
2019/09/07 15:50:48;;;;;;;9.2;4.8;;;;;;;12.63;98.38867;962.8869;;;;
2019/09/07 15:53:13;;;;;;;8.5;5;;;;;;;12.68;99.18262;962.8669;;;;
2019/09/07 15:55:39;;;;;;;6.7;5.1;;;;;;;12.78;98.80273;962.8672;;;;
2019/09/07 15:58:04;;;;;;;6.5;4.8;;;;;;;12.71;96.32227;962.8445;;;;
2019/09/07 16:00:29;;;;;;;7.1;4.6;;;;;;;12.66;99.45605;962.8391;;;;
2019/09/07 16:02:54;;;;;;;6.5;4.8;;;;;;;12.69;98.03027;962.7946;;;;
2019/09/07 16:05:19;;;;;;;6.8;4.7;;;;;;;12.64;100;962.8198;;;;
2019/09/07 16:07:44;;;;;;;7.3;4;;;;;;;12.68;99.3584;962.8207;;;;
2019/09/07 16:10:09;;;;;;;5;3.5;;;;;;;12.65;92.76953;962.77;;;;
2019/09/07 16:12:34;;;;;;;6.1;4;;;;;;;12.68;99.20801;962.7717;;;;
2019/09/07 16:14:59;;;;;;;5.4;4.4;;;;;;;12.8;100;962.7748;;;;
2019/09/07 16:17:26;;;;;;;6.9;4.2;;;;;;;12.84;100;962.7978;;;;
2019/09/07 16:19:51;;;;;;;6.4;4.4;;;;;;;12.94;100;962.7166;;;;
2019/09/07 16:22:16;;;;;;;6.9;4.6;;;;;;;12.86;100;962.6997;;;;
2019/09/07 16:24:41;;;;;;;6.2;4.8;;;;;;;12.93;100;962.6625;;;;
2019/09/07 16:27:06;;;;;;;6.2;4.4;;;;;;;13.03;100;962.6655;;;;
2019/09/07 16:29:31;;;;;;;4.8;3.6;;;;;;;12.92;99.27246;962.6834;;;;
2019/09/07 16:31:56;;;;;;;4.8;3.8;;;;;;;12.99;100;962.6306;;;;
2019/09/07 16:34:21;;;;;;;4.9;4;;;;;;;12.97;100;962.645;;;;
2019/09/07 16:36:46;;;;;;;6.5;4.2;;;;;;;12.98;100;962.6794;;;;
2019/09/07 16:39:12;;;;;;;6;4.5;;;;;;;13.04;100;962.6852;;;;
2019/09/07 16:41:37;;;;;;;6.6;4.8;;;;;;;13.06;100;962.6677;;;;
2019/09/07 16:44:02;;;;;;;6.9;4.8;;;;;;;12.97;100;962.6531;;;;
2019/09/07 16:46:27;;;;;;;5;3.3;;;;;;;12.93;95.48145;962.7042;;;;
2019/09/07 16:48:52;;;;;;;3.9;2.8;;;;;;;12.98;95.82813;962.6614;;;;
2019/09/07 16:51:17;;;;;;;4.9;2.7;;;;;;;12.99;92.40234;962.6217;;;;
2019/09/07 16:53:42;;;;;;;4;2.7;;;;;;;13.07;95.18848;962.6319;;;;
2019/09/07 16:56:07;;;;;;;12;4.6;;;;;;;13.05;90.80664;962.5767;;;;
2019/09/07 16:59:44;;;;;;;14.1;5.7;;;;;;;12.94;91.86133;962.5669;;;;
2019/09/07 17:02:09;;;;;;;13;5.7;;;;;;;12.92;93.92676;962.5329;;;;
2019/09/07 17:04:34;;;;;;;11;5.2;;;;;;;12.91;94.01758;962.4756;;;;
2019/09/07 17:06:59;;;;;;;7.3;4.6;;;;;;;12.84;98.30566;962.5466;;;;
2019/09/07 17:09:24;;;;;;;7.1;3.9;;;;;;;12.76;100;962.5372;;;;
2019/09/07 17:11:49;;;;;;;6.7;3.4;;;;;;;12.75;99.74316;962.5305;;;;
2019/09/07 17:14:14;;;;;;;4.8;2.9;;;;;;;12.81;98.94727;962.4742;;;;
2019/09/07 17:16:39;;;;;;;5;2.9;;;;;;;12.67;97.94531;962.5178;;;;
2019/09/07 17:19:04;;;;;;;5.2;3.4;;;;;;;12.63;100;962.478;;;;
2019/09/07 17:21:29;;;;;;;5.1;3;;;;;;;12.67;99.54102;962.5292;;;;
2019/09/07 17:23:55;;;;;;;5.9;4;;;;;;;12.63;99.86426;962.5377;;;;
2019/09/07 17:26:20;;;;;;;3.8;2.3;;;;;;;12.66;95.57227;962.548;;;;
2019/09/07 17:31:26;;;;;;;7.1;4.3;;;;;;;12.73;96.22266;962.5465;;;;
2019/09/07 17:33:51;;;;;;;7.5;4.5;;;;;;;12.64;90.92969;962.5435;;;;
2019/09/07 17:36:16;;;;;;;7.4;4.7;;;;;;;12.67;94.82227;962.5464;;;;
2019/09/07 17:38:41;;;;;;;6.7;4.5;;;;;;;12.51;96.75293;962.5251;;;;
2019/09/07 17:41:07;;;;;;;5.5;4.1;;;;;;;12.56;99.06543;962.5187;;;;
2019/09/07 17:43:32;;;;;;;4.8;3.7;;;;;;;12.61;98.86816;962.5184;;;;
2019/09/07 17:45:57;;;;;;;4.7;3.7;;;;;;;12.6;99.57129;962.5593;;;;
2019/09/07 17:48:23;;;;;;;5.9;3.8;;;;;;;12.6;100;962.565;;;;
2019/09/07 17:50:48;;;;;;;6;4.1;;;;;;;12.63;100;962.5566;;;;
2019/09/07 17:53:14;;;;;;;4.5;3.4;;;;;;;12.63;98.9043;962.5753;;;;
2019/09/07 17:55:39;;;;;;;4;3.1;;;;;;;12.65;99.24609;962.6213;;;;
2019/09/07 17:58:04;;;;;;;4.2;2.8;;;;;;;12.7;98.92285;962.6433;;;;
2019/09/07 18:00:29;;;;;;;3.4;3.1;;;;;;;12.68;99.125;962.6732;;;;
2019/09/07 18:02:55;;;;;;;5;3.3;;;;;;;12.65;99.98633;962.7062;;;;
2019/09/07 18:05:20;;;;;;;5;3.8;;;;;;;12.68;100;962.7095;;;;
2019/09/07 18:07:46;;;;;;;5.3;3.7;;;;;;;12.7;100;962.7578;;;;
2019/09/07 18:10:10;;;;;;;4.7;4;;;;;;;12.84;100;962.7863;;;;
2019/09/07 18:12:35;;;;;;;5.2;4.5;;;;;;;12.73;100;962.7559;;;;
2019/09/07 18:15:01;;;;;;;6.4;4.3;;;;;;;12.83;100;962.7949;;;;
2019/09/07 18:17:26;;;;;;;4.7;4.1;;;;;;;12.84;100;962.7921;;;;
2019/09/07 18:19:51;;;;;;;5.5;4.7;;;;;;;12.89;100;962.8183;;;;
2019/09/07 18:22:16;;;;;;;4.8;3.9;;;;;;;12.91;100;962.7692;;;;
2019/09/07 18:24:41;;;;;;;5.4;4.5;;;;;;;12.95;100;962.7985;;;;
2019/09/07 18:27:06;;;;;;;5.9;4.7;;;;;;;12.84;100;962.7838;;;;
2019/09/07 18:29:31;;;;;;;7.4;4.9;;;;;;;12.79;100;962.8124;;;;
2019/09/07 18:31:56;;;;;;;6.3;5;;;;;;;12.75;100;962.7792;;;;
2019/09/07 18:34:21;;;;;;;6.8;5.5;;;;;;;12.77;100;962.8234;;;;
2019/09/07 18:36:46;;;;;;;7.4;6.3;;;;;;;12.76;100;962.7833;;;;
2019/09/07 18:39:11;;;;;;;6.7;5.8;;;;;;;12.82;100;962.8219;;;;